createdAt,value
2023-02-08T04:00:35.580Z,36.03
2023-02-08T04:01:35.577Z,36.13
2023-02-08T04:02:35.557Z,36.13
2023-02-08T04:03:35.548Z,36.13
2023-02-08T04:04:35.547Z,35.83
2023-02-08T04:05:35.552Z,36.32
2023-02-08T04:06:35.561Z,36.41
2023-02-08T04:07:35.557Z,36.32
2023-02-08T04:08:35.551Z,36.22
2023-02-08T04:09:37.845Z,36.32
2023-02-08T04:10:35.577Z,36.51
2023-02-08T04:11:35.559Z,36.32
2023-02-08T04:12:35.559Z,36.70
2023-02-08T04:13:35.556Z,36.62
2023-02-08T04:14:33.877Z,36.60
2023-02-08T04:15:35.111Z,36.32
2023-02-08T04:16:35.602Z,36.32
2023-02-08T04:17:35.069Z,36.62
2023-02-08T04:18:34.867Z,36.15
2023-02-08T04:19:34.846Z,36.90
2023-02-08T04:20:34.838Z,36.90
2023-02-08T04:21:34.836Z,36.24
2023-02-08T04:22:35.578Z,36.03
2023-02-08T04:23:35.072Z,36.90
2023-02-08T04:24:33.817Z,36.72
2023-02-08T04:25:35.078Z,36.91
2023-02-08T04:26:34.802Z,36.91
2023-02-08T04:27:35.579Z,36.72
2023-02-08T04:28:35.584Z,36.72
2023-02-08T04:29:33.794Z,36.72
2023-02-08T04:30:35.608Z,36.24
2023-02-08T04:31:34.864Z,36.72
2023-02-08T04:32:35.617Z,36.33
2023-02-08T04:33:35.572Z,36.72
2023-02-08T04:34:35.572Z,36.72
2023-02-08T04:35:35.572Z,36.72
2023-02-08T04:36:35.611Z,36.82
2023-02-08T04:37:35.584Z,36.62
2023-02-08T04:38:35.578Z,36.62
2023-02-08T04:39:35.575Z,36.53
2023-02-08T04:40:34.740Z,36.82
2023-02-08T04:41:35.096Z,36.62
2023-02-08T04:42:33.726Z,36.24
2023-02-08T04:43:33.730Z,36.62
2023-02-08T04:44:33.721Z,36.33
2023-02-08T04:45:33.769Z,36.62
2023-02-08T04:46:35.106Z,36.43
2023-02-08T04:47:33.705Z,36.24
2023-02-08T04:48:35.122Z,36.43
2023-02-08T04:49:35.588Z,36.24
2023-02-08T04:50:35.618Z,36.43
2023-02-08T04:51:35.599Z,36.43
2023-02-08T04:52:35.587Z,36.33
2023-02-08T04:53:35.590Z,36.15
2023-02-08T04:54:35.599Z,36.33
2023-02-08T04:55:35.600Z,36.24
2023-02-08T04:56:35.608Z,36.15
2023-02-08T04:57:35.596Z,36.33
2023-02-08T04:58:34.649Z,36.33
2023-02-08T04:59:35.624Z,36.33
2023-02-08T05:00:35.596Z,36.43
2023-02-08T05:01:35.622Z,36.33
2023-02-08T05:02:35.598Z,36.33
2023-02-08T05:03:35.598Z,36.33
2023-02-08T05:04:35.625Z,36.33
2023-02-08T05:05:35.611Z,35.95
2023-02-08T05:06:35.122Z,35.85
2023-02-08T05:07:35.097Z,36.43
2023-02-08T05:08:35.103Z,36.33
2023-02-08T05:09:34.618Z,35.95
2023-02-08T05:10:35.108Z,35.95
2023-02-08T05:11:34.576Z,36.15
2023-02-08T05:12:34.568Z,36.05
2023-02-08T05:13:34.566Z,36.05
2023-02-08T05:14:34.570Z,36.62
2023-02-08T05:15:35.144Z,36.53
2023-02-08T05:16:34.552Z,36.43
2023-02-08T05:17:34.558Z,36.33
2023-02-08T05:18:34.620Z,36.24
2023-02-08T05:19:34.547Z,36.33
2023-02-08T05:20:35.135Z,36.33
2023-02-08T05:21:35.117Z,36.24
2023-02-08T05:22:35.104Z,36.24
2023-02-08T05:23:35.121Z,35.76
2023-02-08T05:24:35.109Z,36.53
2023-02-08T05:25:35.128Z,36.24
2023-02-08T05:26:35.111Z,35.76
2023-02-08T05:27:35.122Z,36.15
2023-02-08T05:28:35.121Z,36.05
2023-02-08T05:29:35.131Z,36.05
2023-02-08T05:30:35.110Z,36.15
2023-02-08T05:31:35.253Z,36.15
2023-02-08T05:32:35.133Z,36.15
2023-02-08T05:33:35.118Z,35.85
2023-02-08T05:34:35.126Z,36.15
2023-02-08T05:35:35.121Z,36.15
2023-02-08T05:36:35.127Z,36.15
2023-02-08T05:37:35.156Z,35.76
2023-02-08T05:38:35.139Z,36.05
2023-02-08T05:39:35.117Z,35.95
2023-02-08T05:40:35.124Z,35.85
2023-02-08T05:41:35.152Z,35.85
2023-02-08T05:42:35.119Z,35.85
2023-02-08T05:43:35.135Z,35.85
2023-02-08T05:44:34.406Z,35.76
2023-02-08T05:45:35.144Z,35.66
2023-02-08T05:46:36.524Z,35.76
2023-02-08T05:47:35.123Z,35.85
2023-02-08T05:48:35.120Z,35.85
2023-02-08T05:49:34.385Z,35.95
2023-02-08T05:50:33.379Z,35.95
2023-02-08T05:51:34.638Z,35.95
2023-02-08T05:52:34.382Z,36.15
2023-02-08T05:53:34.364Z,36.15
2023-02-08T05:54:34.367Z,36.15
2023-02-08T05:55:33.353Z,36.05
2023-02-08T05:56:35.146Z,36.05
2023-02-08T05:57:35.678Z,36.15
2023-02-08T05:58:35.140Z,36.05
2023-02-08T05:59:34.341Z,36.15
2023-02-08T06:00:35.154Z,35.95
2023-02-08T06:01:33.323Z,36.05
2023-02-08T06:02:35.131Z,35.95
2023-02-08T06:03:35.150Z,35.95
2023-02-08T06:04:34.315Z,36.15
2023-02-08T06:05:35.142Z,36.15
2023-02-08T06:06:35.144Z,36.15
2023-02-08T06:07:34.295Z,35.95
2023-02-08T06:08:35.158Z,36.05
2023-02-08T06:09:34.285Z,36.05
2023-02-08T06:10:35.136Z,35.95
2023-02-08T06:11:35.187Z,36.05
2023-02-08T06:12:35.144Z,36.05
2023-02-08T06:13:33.282Z,36.15
2023-02-08T06:14:33.256Z,35.95
2023-02-08T06:15:35.187Z,35.66
2023-02-08T06:16:33.269Z,35.76
2023-02-08T06:17:33.252Z,35.66
2023-02-08T06:18:33.244Z,35.95
2023-02-08T06:19:33.248Z,36.15
2023-02-08T06:20:34.660Z,35.95
2023-02-08T06:21:34.657Z,35.95
2023-02-08T06:22:33.232Z,35.76
2023-02-08T06:23:34.222Z,35.85
2023-02-08T06:24:35.168Z,35.95
2023-02-08T06:25:35.151Z,35.76
2023-02-08T06:26:35.164Z,36.05
2023-02-08T06:27:35.149Z,35.95
2023-02-08T06:28:35.147Z,35.57
2023-02-08T06:29:35.148Z,35.85
2023-02-08T06:30:35.150Z,35.76
2023-02-08T06:31:35.193Z,35.85
2023-02-08T06:32:33.365Z,35.85
2023-02-08T06:33:34.180Z,35.66
2023-02-08T06:34:34.672Z,35.66
2023-02-08T06:35:34.668Z,35.76
2023-02-08T06:36:34.682Z,35.76
2023-02-08T06:37:34.665Z,35.85
2023-02-08T06:38:33.144Z,35.85
2023-02-08T06:39:34.152Z,35.85
2023-02-08T06:40:34.670Z,35.76
2023-02-08T06:41:34.682Z,36.05
2023-02-08T06:42:34.661Z,35.95
2023-02-08T06:43:34.150Z,36.05
2023-02-08T06:44:34.662Z,35.76
2023-02-08T06:45:33.159Z,35.66
2023-02-08T06:46:34.701Z,35.85
2023-02-08T06:47:34.104Z,35.57
2023-02-08T06:48:33.088Z,35.47
2023-02-08T06:49:33.098Z,35.85
2023-02-08T06:50:34.115Z,35.95
2023-02-08T06:51:35.216Z,35.76
2023-02-08T06:52:34.070Z,35.85
2023-02-08T06:53:34.207Z,35.85
2023-02-08T06:54:33.428Z,35.76
2023-02-08T06:55:33.052Z,36.05
2023-02-08T06:56:33.115Z,35.57
2023-02-08T06:57:34.712Z,35.85
2023-02-08T06:58:34.723Z,35.95
2023-02-08T06:59:33.116Z,35.66
2023-02-08T07:00:33.042Z,36.05
2023-02-08T07:01:34.713Z,35.85
2023-02-08T07:02:34.737Z,36.05
2023-02-08T07:03:33.702Z,35.47
2023-02-08T07:04:34.684Z,35.57
2023-02-08T07:05:34.683Z,35.47
2023-02-08T07:06:34.681Z,35.58
2023-02-08T07:07:34.684Z,35.47
2023-02-08T07:08:34.702Z,35.87
2023-02-08T07:09:34.700Z,35.68
2023-02-08T07:10:34.685Z,35.57
2023-02-08T07:11:34.715Z,35.08
2023-02-08T07:12:34.708Z,35.39
2023-02-08T07:13:34.691Z,35.39
2023-02-08T07:14:32.965Z,35.68
2023-02-08T07:15:32.964Z,35.28
2023-02-08T07:16:33.009Z,35.38
2023-02-08T07:17:34.707Z,35.39
2023-02-08T07:18:32.946Z,35.30
2023-02-08T07:19:32.939Z,35.30
2023-02-08T07:20:34.713Z,35.30
2023-02-08T07:21:34.216Z,35.28
2023-02-08T07:22:32.921Z,35.28
2023-02-08T07:23:34.720Z,35.39
2023-02-08T07:24:32.940Z,35.38
2023-02-08T07:25:34.719Z,35.38
2023-02-08T07:26:33.060Z,35.47
2023-02-08T07:27:34.715Z,35.38
2023-02-08T07:28:33.041Z,35.47
2023-02-08T07:29:34.712Z,35.49
2023-02-08T07:30:32.939Z,35.49
2023-02-08T07:31:35.726Z,35.38
2023-02-08T07:32:34.777Z,35.47
2023-02-08T07:33:34.727Z,35.39
2023-02-08T07:34:34.734Z,35.39
2023-02-08T07:35:34.709Z,35.47
2023-02-08T07:36:32.852Z,35.00
2023-02-08T07:37:34.724Z,35.38
2023-02-08T07:38:34.727Z,35.00
2023-02-08T07:39:34.748Z,35.58
2023-02-08T07:40:34.753Z,35.38
2023-02-08T07:41:34.767Z,35.47
2023-02-08T07:42:34.761Z,35.68
2023-02-08T07:43:34.725Z,35.66
2023-02-08T07:44:34.714Z,35.49
2023-02-08T07:45:34.751Z,35.58
2023-02-08T07:46:34.714Z,35.66
2023-02-08T07:47:34.759Z,35.58
2023-02-08T07:48:34.726Z,35.58
2023-02-08T07:49:32.795Z,35.08
2023-02-08T07:50:32.799Z,35.49
2023-02-08T07:51:32.791Z,35.58
2023-02-08T07:52:32.780Z,35.30
2023-02-08T07:53:34.266Z,35.58
2023-02-08T07:54:32.771Z,35.10
2023-02-08T07:55:32.763Z,35.58
2023-02-08T07:56:32.817Z,35.58
2023-02-08T07:57:34.740Z,35.49
2023-02-08T07:58:33.797Z,35.58
2023-02-08T07:59:34.760Z,35.58
2023-02-08T08:00:35.248Z,35.77
2023-02-08T08:01:34.287Z,35.58
2023-02-08T08:02:34.290Z,35.20
2023-02-08T08:03:32.721Z,35.49
2023-02-08T08:04:34.238Z,35.58
2023-02-08T08:05:34.235Z,35.49
2023-02-08T08:06:34.243Z,35.49
2023-02-08T08:07:34.242Z,35.58
2023-02-08T08:08:34.249Z,35.58
2023-02-08T08:09:34.286Z,35.30
2023-02-08T08:10:34.260Z,35.39
2023-02-08T08:12:34.247Z,35.20
2023-02-08T08:14:34.243Z,35.10
2023-02-08T08:15:34.283Z,35.30
2023-02-08T08:16:34.375Z,35.39
2023-02-08T08:17:34.242Z,34.91
2023-02-08T08:18:34.258Z,35.20
2023-02-08T08:19:34.248Z,35.30
2023-02-08T08:21:34.260Z,35.02
2023-02-08T08:22:34.254Z,35.50
2023-02-08T08:23:34.272Z,35.31
2023-02-08T08:24:34.261Z,35.50
2023-02-08T08:25:34.641Z,35.50
2023-02-08T08:26:34.254Z,35.22
2023-02-08T08:27:34.267Z,35.41
2023-02-08T08:28:34.396Z,35.02
2023-02-08T08:29:34.267Z,35.22
2023-02-08T08:30:32.637Z,35.22
2023-02-08T08:31:35.817Z,35.02
2023-02-08T08:32:32.623Z,35.12
2023-02-08T08:33:35.831Z,35.22
2023-02-08T08:34:32.577Z,35.12
2023-02-08T08:35:35.281Z,35.12
2023-02-08T08:36:32.708Z,35.12
2023-02-08T08:37:34.321Z,35.04
2023-02-08T08:38:32.574Z,35.04
2023-02-08T08:39:32.583Z,35.24
2023-02-08T08:40:32.739Z,35.24
2023-02-08T08:41:32.548Z,35.04
2023-02-08T08:42:34.289Z,35.24
2023-02-08T08:43:34.297Z,35.24
2023-02-08T08:44:34.550Z,35.04
2023-02-08T08:45:32.547Z,35.24
2023-02-08T08:46:34.119Z,35.14
2023-02-08T08:47:32.561Z,35.14
2023-02-08T08:48:33.021Z,35.24
2023-02-08T08:49:32.540Z,35.24
2023-02-08T08:50:34.304Z,35.24
2023-02-08T08:51:32.641Z,35.04
2023-02-08T08:52:32.504Z,34.84
2023-02-08T08:53:32.631Z,35.14
2023-02-08T08:54:34.494Z,34.84
2023-02-08T08:55:33.452Z,35.25
2023-02-08T08:56:32.532Z,34.86
2023-02-08T08:57:32.490Z,35.44
2023-02-08T08:58:32.486Z,34.86
2023-02-08T08:59:34.382Z,35.06
2023-02-08T09:00:32.478Z,35.06
2023-02-08T09:01:34.825Z,35.25
2023-02-08T09:02:34.359Z,35.06
2023-02-08T09:03:34.846Z,34.67
2023-02-08T09:04:32.942Z,34.86
2023-02-08T09:05:32.545Z,34.77
2023-02-08T09:06:34.287Z,34.77
2023-02-08T09:07:34.302Z,34.86
2023-02-08T09:08:34.324Z,34.69
2023-02-08T09:09:34.296Z,34.59
2023-02-08T09:10:34.777Z,34.77
2023-02-08T09:11:32.435Z,34.69
2023-02-08T09:12:34.432Z,34.59
2023-02-08T09:13:34.288Z,34.78
2023-02-08T09:14:34.283Z,35.17
2023-02-08T09:15:34.286Z,34.78
2023-02-08T09:16:32.770Z,34.78
2023-02-08T09:17:34.307Z,34.78
2023-02-08T09:18:34.305Z,34.69
2023-02-08T09:19:34.294Z,35.17
2023-02-08T09:20:37.452Z,34.78
2023-02-08T09:21:33.086Z,34.78
2023-02-08T09:22:33.063Z,34.78
2023-02-08T09:23:34.431Z,34.69
2023-02-08T09:24:34.412Z,34.78
2023-02-08T09:25:32.383Z,34.69
2023-02-08T09:27:33.904Z,34.80
2023-02-08T09:28:32.405Z,34.80
2023-02-08T09:29:32.366Z,34.80
2023-02-08T09:30:32.362Z,34.80
2023-02-08T09:31:32.478Z,34.80
2023-02-08T09:32:34.458Z,35.10
2023-02-08T09:33:32.402Z,34.70
2023-02-08T09:34:34.331Z,35.00
2023-02-08T09:36:34.354Z,34.80
2023-02-08T09:38:34.810Z,34.70
2023-02-08T09:39:34.328Z,35.02
2023-02-08T09:40:34.331Z,34.72
2023-02-08T09:41:34.323Z,34.92
2023-02-08T09:42:34.317Z,34.72
2023-02-08T09:43:34.345Z,34.53
2023-02-08T09:45:34.314Z,34.72
2023-02-08T09:46:34.922Z,34.82
2023-02-08T09:47:35.071Z,34.53
2023-02-08T09:48:33.828Z,35.11
2023-02-08T09:49:34.041Z,34.53
2023-02-08T09:50:35.974Z,34.63
2023-02-08T09:51:34.443Z,34.82
2023-02-08T09:52:33.445Z,34.92
2023-02-08T09:53:33.824Z,34.82
2023-02-08T09:54:33.828Z,35.13
2023-02-08T09:55:33.879Z,34.84
2023-02-08T09:56:34.216Z,34.82
2023-02-08T09:58:34.466Z,34.74
2023-02-08T09:59:34.049Z,34.64
2023-02-08T10:00:33.892Z,34.64
2023-02-08T10:01:32.297Z,34.84
2023-02-08T10:02:33.999Z,34.84
2023-02-08T10:13:47.423Z,34.66
2023-02-08T10:15:47.386Z,34.56
2023-02-08T10:16:47.383Z,34.47
2023-02-08T10:17:49.198Z,34.47
2023-02-08T10:18:47.364Z,34.38
2023-02-08T10:19:50.583Z,34.47
2023-02-08T10:20:47.451Z,35.05
2023-02-08T10:21:47.378Z,34.95
2023-02-08T10:22:47.457Z,34.95
2023-02-08T10:23:47.358Z,35.14
2023-02-08T10:24:49.178Z,34.95
2023-02-08T10:25:47.528Z,34.95
2023-02-08T10:26:47.515Z,35.06
2023-02-08T10:27:48.044Z,35.06
2023-02-08T10:28:47.801Z,35.06
2023-02-08T10:29:49.346Z,35.06
2023-02-08T10:30:47.716Z,34.97
2023-02-08T10:31:49.394Z,34.97
2023-02-08T10:32:47.546Z,34.87
2023-02-08T10:33:47.414Z,35.06
2023-02-08T10:34:48.419Z,35.06
2023-02-08T10:35:47.346Z,35.08
2023-02-08T10:36:47.543Z,34.79
2023-02-08T10:37:47.511Z,34.87
2023-02-08T10:38:47.470Z,34.99
2023-02-08T10:39:49.157Z,34.89
2023-02-08T10:40:47.438Z,34.89
2023-02-08T10:41:49.175Z,35.08
2023-02-08T10:42:47.876Z,35.08
2023-02-08T10:43:47.858Z,34.89
2023-02-08T10:44:48.435Z,35.08
2023-02-08T10:45:47.545Z,35.08
2023-02-08T10:46:52.053Z,34.99
2023-02-08T10:47:47.725Z,35.00
2023-02-08T10:48:49.198Z,34.91
2023-02-08T10:49:47.333Z,35.00
2023-02-08T10:50:49.176Z,35.00
2023-02-08T10:52:49.194Z,35.20
2023-02-08T10:53:49.156Z,34.81
2023-02-08T10:54:49.167Z,35.20
2023-02-08T10:55:49.157Z,35.29
2023-02-08T10:56:49.178Z,35.20
2023-02-08T10:57:49.162Z,34.62
2023-02-08T10:58:49.158Z,34.63
2023-02-08T10:59:49.163Z,35.02
2023-02-08T11:00:49.228Z,34.63
2023-02-08T11:01:49.170Z,34.54
2023-02-08T11:02:49.186Z,34.63
2023-02-08T11:03:49.175Z,34.73
2023-02-08T11:04:49.162Z,34.54
2023-02-08T11:05:49.156Z,34.63
2023-02-08T11:06:49.171Z,34.63
2023-02-08T11:07:49.174Z,34.63
2023-02-08T11:08:49.184Z,34.83
2023-02-08T11:09:49.179Z,34.54
2023-02-08T11:10:49.174Z,34.73
2023-02-08T11:11:49.200Z,34.63
2023-02-08T11:12:49.167Z,34.73
2023-02-08T11:13:49.181Z,34.83
2023-02-08T11:14:49.196Z,34.63
2023-02-08T11:15:49.169Z,34.73
2023-02-08T11:16:48.640Z,34.92
2023-02-08T11:17:49.200Z,34.92
2023-02-08T11:18:47.332Z,34.63
2023-02-08T11:19:48.693Z,34.63
2023-02-08T11:20:47.322Z,34.83
2023-02-08T11:21:47.318Z,34.63
2023-02-08T11:22:47.325Z,35.02
2023-02-08T11:23:49.196Z,34.73
2023-02-08T11:24:49.181Z,34.83
2023-02-08T11:25:49.178Z,34.73
2023-02-08T11:26:49.184Z,34.83
2023-02-08T11:27:49.254Z,34.84
2023-02-08T11:28:49.184Z,34.63
2023-02-08T11:29:49.197Z,35.02
2023-02-08T11:30:49.209Z,34.65
2023-02-08T11:31:49.260Z,34.73
2023-02-08T11:32:49.222Z,34.73
2023-02-08T11:33:49.189Z,34.54
2023-02-08T11:34:49.190Z,34.63
2023-02-08T11:35:49.189Z,34.54
2023-02-08T11:36:49.207Z,34.63
2023-02-08T11:37:49.214Z,34.65
2023-02-08T11:38:49.198Z,34.63
2023-02-08T11:39:49.199Z,34.44
2023-02-08T11:40:49.209Z,34.65
2023-02-08T11:41:49.194Z,34.36
2023-02-08T11:42:49.213Z,34.63
2023-02-08T11:43:49.220Z,34.25
2023-02-08T11:44:49.294Z,34.54
2023-02-08T11:45:49.278Z,34.44
2023-02-08T11:46:49.222Z,34.54
2023-02-08T11:47:49.261Z,34.45
2023-02-08T11:48:49.249Z,34.63
2023-02-08T11:49:49.161Z,34.27
2023-02-08T11:50:47.553Z,34.75
2023-02-08T11:51:47.324Z,34.54
2023-02-08T11:52:47.324Z,34.45
2023-02-08T11:53:49.225Z,34.54
2023-02-08T11:54:47.307Z,34.45
2023-02-08T11:55:47.304Z,34.73
2023-02-08T11:56:47.315Z,34.73
2023-02-08T11:57:48.307Z,34.65
2023-02-08T11:58:49.228Z,34.65
2023-02-08T11:59:48.322Z,34.75
2023-02-08T12:00:47.313Z,34.45
2023-02-08T12:01:49.304Z,34.36
2023-02-08T12:02:47.315Z,34.45
2023-02-08T12:03:49.304Z,34.36
2023-02-08T12:04:47.331Z,34.38
2023-02-08T12:05:47.306Z,34.36
2023-02-08T12:06:49.227Z,34.47
2023-02-08T12:07:48.740Z,34.77
2023-02-08T12:08:49.328Z,34.47
2023-02-08T12:09:47.305Z,34.77
2023-02-08T12:10:52.261Z,34.47
2023-02-08T12:11:47.315Z,34.47
2023-02-08T12:12:49.233Z,34.47
2023-02-08T12:13:48.781Z,34.77
2023-02-08T12:14:49.231Z,34.59
2023-02-08T12:15:58.332Z,34.39
2023-02-08T12:16:49.407Z,34.59
2023-02-08T12:17:49.264Z,34.30
2023-02-08T12:18:48.711Z,34.39
2023-02-08T12:19:47.484Z,34.22
2023-02-08T12:20:47.631Z,34.31
2023-02-08T12:21:49.255Z,34.12
2023-02-08T12:22:47.850Z,33.83
2023-02-08T12:23:49.270Z,33.73
2023-02-08T12:24:47.313Z,34.14
2023-02-08T12:25:47.581Z,33.94
2023-02-08T12:26:49.257Z,33.94
2023-02-08T12:27:49.365Z,33.96
2023-02-08T12:28:49.320Z,33.57
2023-02-08T12:29:49.271Z,33.76
2023-02-08T12:30:49.348Z,33.59
2023-02-08T12:31:49.288Z,33.59
2023-02-08T12:32:49.283Z,33.69
2023-02-08T12:33:49.274Z,33.69
2023-02-08T12:34:49.304Z,33.80
2023-02-08T12:36:03.257Z,33.70
2023-02-08T12:36:49.293Z,33.61
2023-02-08T12:37:49.289Z,33.70
2023-02-08T12:38:49.250Z,33.62
2023-02-08T12:39:49.279Z,33.81
2023-02-08T12:40:49.310Z,33.44
2023-02-08T12:41:49.256Z,33.64
2023-02-08T12:42:49.255Z,33.64
2023-02-08T12:43:49.271Z,33.46
2023-02-08T12:44:49.272Z,33.17
2023-02-08T12:45:49.277Z,33.77
2023-02-08T12:46:49.257Z,33.48
2023-02-08T12:48:03.080Z,33.18
2023-02-08T12:48:49.276Z,33.18
2023-02-08T12:49:49.263Z,33.28
2023-02-08T12:50:49.264Z,33.11
2023-02-08T12:51:49.279Z,33.11
2023-02-08T12:52:47.395Z,33.29
2023-02-08T12:53:49.290Z,32.92
2023-02-08T12:54:49.496Z,32.82
2023-02-08T12:55:47.365Z,32.65
2023-02-08T12:57:00.334Z,32.65
2023-02-08T12:57:47.373Z,32.45
2023-02-08T12:58:47.382Z,32.55
2023-02-08T12:59:47.404Z,32.67
2023-02-08T13:00:48.297Z,32.57
2023-02-08T13:01:49.295Z,32.28
2023-02-08T13:02:49.343Z,32.19
2023-02-08T13:03:49.340Z,32.58
2023-02-08T13:04:49.292Z,32.58
2023-02-08T13:06:01.653Z,32.39
2023-02-08T13:06:49.298Z,32.31
2023-02-08T13:07:49.283Z,32.40
2023-02-08T13:08:47.432Z,32.11
2023-02-08T13:09:49.312Z,32.31
2023-02-08T13:10:49.307Z,32.23
2023-02-08T13:11:49.372Z,32.32
2023-02-08T13:12:47.425Z,32.23
2023-02-08T13:13:49.297Z,31.64
2023-02-08T13:14:47.451Z,31.75
2023-02-08T13:15:47.763Z,31.75
2023-02-08T13:16:50.309Z,31.46
2023-02-08T13:17:47.466Z,31.36
2023-02-08T13:18:47.465Z,31.46
2023-02-08T13:19:59.608Z,31.48
2023-02-08T13:20:49.314Z,31.67
2023-02-08T13:21:47.468Z,31.48
2023-02-08T13:22:47.476Z,31.08
2023-02-08T13:23:52.895Z,31.28
2023-02-08T13:24:52.457Z,31.38
2023-02-08T13:25:49.336Z,31.29
2023-02-08T13:26:49.347Z,31.49
2023-02-08T13:27:47.509Z,31.39
2023-02-08T13:28:49.332Z,31.29
2023-02-08T13:29:47.511Z,31.20
2023-02-08T13:30:49.399Z,31.29
2023-02-08T13:31:49.359Z,31.20
2023-02-08T13:32:47.514Z,30.82
2023-02-08T13:34:00.933Z,31.11
2023-02-08T13:34:49.355Z,31.11
2023-02-08T13:35:47.528Z,31.11
2023-02-08T13:36:47.537Z,31.11
2023-02-08T13:37:49.324Z,31.11
2023-02-08T13:38:47.563Z,30.83
2023-02-08T13:39:49.339Z,30.74
2023-02-08T13:40:47.600Z,30.83
2023-02-08T13:41:49.364Z,30.64
2023-02-08T13:42:49.343Z,30.83
2023-02-08T13:43:47.588Z,30.83
2023-02-08T13:44:47.575Z,30.83
2023-02-08T13:45:47.584Z,30.83
2023-02-08T13:46:49.363Z,30.83
2023-02-08T13:47:47.604Z,30.74
2023-02-08T13:48:49.338Z,30.64
2023-02-08T13:49:49.372Z,30.65
2023-02-08T13:50:49.385Z,30.75
2023-02-08T13:51:49.364Z,30.65
2023-02-08T13:52:48.898Z,30.64
2023-02-08T13:53:47.636Z,30.65
2023-02-08T13:54:47.628Z,30.54
2023-02-08T13:55:49.360Z,30.55
2023-02-08T13:56:49.409Z,30.55
2023-02-08T13:57:47.655Z,30.36
2023-02-08T13:58:47.647Z,30.55
2023-02-08T13:59:47.652Z,30.36
2023-02-08T14:00:47.658Z,30.16
2023-02-08T14:01:49.428Z,30.36
2023-02-08T14:02:49.377Z,30.46
2023-02-08T14:03:49.382Z,30.46
2023-02-08T14:04:49.383Z,30.36
2023-02-08T14:05:49.366Z,30.36
2023-02-08T14:06:49.385Z,30.46
2023-02-08T14:08:49.384Z,30.36
2023-02-08T14:09:49.365Z,30.26
2023-02-08T14:10:49.384Z,29.97
2023-02-08T14:11:49.383Z,30.07
2023-02-08T14:12:49.423Z,29.97
2023-02-08T14:13:49.384Z,29.77
2023-02-08T14:14:49.385Z,29.77
2023-02-08T14:15:49.408Z,29.97
2023-02-08T14:16:49.375Z,30.07
2023-02-08T14:17:49.379Z,29.77
2023-02-08T14:18:47.746Z,29.87
2023-02-08T14:19:49.400Z,29.77
2023-02-08T14:20:47.763Z,30.05
2023-02-08T14:21:47.777Z,29.85
2023-02-08T14:22:47.760Z,29.95
2023-02-08T14:23:47.794Z,29.85
2023-02-08T14:24:49.392Z,29.85
2023-02-08T14:25:47.807Z,29.85
2023-02-08T14:26:47.796Z,30.15
2023-02-08T14:27:47.787Z,29.94
2023-02-08T14:28:47.823Z,29.94
2023-02-08T14:29:49.409Z,30.04
2023-02-08T14:30:48.041Z,29.94
2023-02-08T14:31:48.008Z,30.04
2023-02-08T14:32:49.400Z,29.84
2023-02-08T14:33:49.428Z,29.73
2023-02-08T14:34:49.402Z,29.93
2023-02-08T14:35:49.389Z,30.02
2023-02-08T14:36:49.388Z,30.32
2023-02-08T14:37:47.831Z,30.30
2023-02-08T14:38:49.392Z,30.20
2023-02-08T14:39:49.410Z,30.30
2023-02-08T14:40:49.398Z,30.58
2023-02-08T14:41:49.396Z,30.29
2023-02-08T14:42:49.431Z,30.47
2023-02-08T14:43:47.876Z,30.66
2023-02-08T14:45:48.214Z,30.65
2023-02-08T14:46:49.491Z,30.74
2023-02-08T14:47:49.407Z,30.73
2023-02-08T14:48:50.424Z,30.73
2023-02-08T14:49:49.404Z,30.71
2023-02-08T14:50:47.888Z,30.81
2023-02-08T14:51:47.886Z,30.91
2023-02-08T14:52:47.892Z,30.90
2023-02-08T14:53:47.923Z,31.28
2023-02-08T14:54:49.430Z,31.17
2023-02-08T14:55:47.899Z,31.17
2023-02-08T14:56:47.905Z,31.35
2023-02-08T14:57:47.906Z,31.45
2023-02-08T14:58:49.434Z,31.34
2023-02-08T14:59:47.910Z,31.43
2023-02-08T15:00:47.991Z,31.61
2023-02-08T15:01:47.932Z,31.51
2023-02-08T15:02:49.445Z,31.88
2023-02-08T15:03:47.968Z,31.70
2023-02-08T15:04:49.439Z,31.87
2023-02-08T15:05:47.929Z,31.97
2023-02-08T15:06:51.102Z,31.87
2023-02-08T15:07:49.441Z,32.17
2023-02-08T15:08:47.932Z,32.15
2023-02-08T15:09:47.940Z,32.15
2023-02-08T15:10:47.941Z,32.23
2023-02-08T15:11:49.930Z,32.23
2023-02-08T15:12:49.471Z,32.52
2023-02-08T15:13:47.941Z,32.41
2023-02-08T15:14:49.467Z,32.41
2023-02-08T15:15:47.949Z,32.12
2023-02-08T15:16:49.557Z,32.10
2023-02-08T15:17:48.980Z,32.29
2023-02-08T15:18:48.957Z,32.39
2023-02-08T15:19:49.473Z,32.47
2023-02-08T15:20:47.968Z,32.37
2023-02-08T15:21:49.962Z,32.37
2023-02-08T15:22:47.979Z,32.37
2023-02-08T15:23:49.962Z,32.36
2023-02-08T15:24:49.962Z,32.46
2023-02-08T15:25:48.957Z,32.36
2023-02-08T15:26:47.957Z,32.07
2023-02-08T15:27:48.999Z,32.73
2023-02-08T15:28:49.968Z,32.64
2023-02-08T15:29:48.929Z,32.92
2023-02-08T15:30:47.990Z,32.82
2023-02-08T15:31:48.041Z,32.91
2023-02-08T15:32:47.955Z,32.81
2023-02-08T15:33:49.497Z,32.91
2023-02-08T15:34:48.954Z,32.91
2023-02-08T15:35:49.462Z,32.89
2023-02-08T15:36:49.458Z,32.89
2023-02-08T15:37:49.476Z,33.28
2023-02-08T15:38:49.479Z,33.09
2023-02-08T15:39:49.470Z,33.09
2023-02-08T15:40:49.488Z,32.41
2023-02-08T15:41:49.474Z,32.87
2023-02-08T15:42:49.461Z,33.07
2023-02-08T15:43:49.456Z,32.87
2023-02-08T15:44:49.462Z,33.26
2023-02-08T15:45:49.553Z,33.36
2023-02-08T15:46:49.482Z,33.44
2023-02-08T15:47:49.467Z,33.44
2023-02-08T15:48:48.933Z,33.54
2023-02-08T15:49:49.504Z,33.25
2023-02-08T15:50:49.482Z,33.25
2023-02-08T15:51:49.485Z,33.05
2023-02-08T15:52:49.480Z,33.14
2023-02-08T15:53:48.064Z,33.14
2023-02-08T15:54:49.484Z,33.62
2023-02-08T15:55:47.924Z,33.42
2023-02-08T15:56:47.932Z,33.52
2023-02-08T15:57:48.999Z,33.23
2023-02-08T15:58:47.926Z,33.22
2023-02-08T15:59:47.922Z,33.12
2023-02-08T16:00:49.013Z,33.22
2023-02-08T16:13:00.341Z,33.29
2023-02-08T16:13:59.366Z,33.29
2023-02-08T16:14:59.838Z,33.48
2023-02-08T16:16:08.467Z,33.47
2023-02-08T16:16:59.438Z,33.47
2023-02-08T16:17:58.337Z,33.37
2023-02-08T16:19:00.322Z,33.47
2023-02-08T16:20:00.314Z,33.57
2023-02-08T16:20:59.386Z,33.57
2023-02-08T16:21:58.327Z,33.47
2023-02-08T16:23:00.310Z,33.57
2023-02-08T16:23:59.813Z,33.45
2023-02-08T16:24:58.319Z,33.45
2023-02-08T16:25:59.829Z,33.36
2023-02-08T16:26:59.833Z,33.45
2023-02-08T16:27:59.863Z,33.36
2023-02-08T16:28:59.904Z,33.74
2023-02-08T16:29:59.836Z,33.94
2023-02-08T16:30:59.489Z,33.74
2023-02-08T16:31:58.317Z,33.65
2023-02-08T16:32:58.298Z,34.13
2023-02-08T16:33:59.302Z,33.55
2023-02-08T16:34:59.287Z,33.65
2023-02-08T16:35:59.345Z,34.11
2023-02-08T16:36:59.333Z,34.03
2023-02-08T16:37:58.272Z,33.82
2023-02-08T16:38:58.280Z,34.01
2023-02-08T16:39:58.277Z,34.01
2023-02-08T16:40:58.267Z,34.21
2023-02-08T16:42:14.544Z,34.11
2023-02-08T16:42:58.264Z,34.21
2023-02-08T16:43:58.254Z,34.11
2023-02-08T16:44:59.856Z,34.11
2023-02-08T16:45:59.848Z,33.82
2023-02-08T16:46:59.858Z,33.82
2023-02-08T16:48:04.267Z,33.82
2023-02-08T16:48:59.843Z,34.30
2023-02-08T16:49:59.847Z,34.30
2023-02-08T16:50:59.837Z,34.40
2023-02-08T16:51:59.225Z,34.50
2023-02-08T16:52:59.869Z,34.59
2023-02-08T16:53:59.226Z,34.21
2023-02-08T16:54:59.871Z,34.30
2023-02-08T16:55:58.213Z,34.30
2023-02-08T16:56:59.865Z,34.30
2023-02-08T16:57:59.853Z,34.29
2023-02-08T16:58:59.861Z,34.38
2023-02-08T16:59:59.846Z,34.50
2023-02-08T17:00:59.859Z,34.48
2023-02-08T17:01:59.844Z,34.48
2023-02-08T17:02:59.844Z,34.38
2023-02-08T17:03:59.902Z,34.29
2023-02-08T17:04:58.182Z,34.19
2023-02-08T17:05:58.181Z,34.19
2023-02-08T17:06:58.181Z,34.58
2023-02-08T17:07:59.414Z,34.19
2023-02-08T17:08:58.249Z,34.38
2023-02-08T17:09:59.977Z,34.58
2023-02-08T17:10:58.161Z,34.38
2023-02-08T17:11:58.165Z,34.29
2023-02-08T17:13:13.276Z,34.38
2023-02-08T17:13:59.878Z,34.09
2023-02-08T17:14:59.872Z,34.48
2023-02-08T17:15:59.889Z,34.29
2023-02-08T17:16:59.870Z,34.38
2023-02-08T17:17:59.866Z,34.48
2023-02-08T17:18:59.877Z,34.29
2023-02-08T17:19:59.952Z,34.48
2023-02-08T17:20:59.931Z,34.77
2023-02-08T17:21:59.876Z,34.48
2023-02-08T17:22:59.864Z,34.67
2023-02-08T17:23:59.880Z,34.75
2023-02-08T17:24:59.109Z,34.38
2023-02-08T17:25:59.896Z,34.58